Aviation Digital Data Service (ADDS)

Output produced by METARs form (1154 UTC 21 October 2014)
found at http://www.aviationweather.gov/adds/metars/
 
SEGU 211100Z 23006KT 9999 BKN030 BKN100 24/20 Q1011 NOSIG RMK A2985
SEGU 210930Z 2112/2212 23005KT 9999 BKN020 SCT090 
     FM211800 14006KT 9999 SCT030 SCT100 
     FM220000 21010KT 9999 FEW020 BKN090 TX30/2119Z TN23/2211Z
       
SEMT 211100Z 19008KT 9999 FEW010 BKN023 BKN090 23/22 Q1011 RMK A2988
SEMT 210930Z 2112/2212 20008KT 9999 SCT020 BKN090 
     FM211800 26010KT 9999 SCT023 SCT100 
     FM220000 22008KT 9999 BKN020 
     FM220700 19004KT 9999 OVC020 TX29/2120Z TN2210Z